Agios Rafail — SY4304 — position and weather

sailwx.info

Track history (hours):
 
Tides and Currents Weather Stations Pressure Air Temp Water Temp Dewpoint Dewpoint Depression Visibility Wind Speed Wind Dir Waves Ship Positions

Agios Rafail

Last reported at 2017-Sep-20 11:20 UTC. Time now 2017-Sep-21 03:34 UTC.
Position N 40°47' E 024°43'.

Length 80 m; draft 2.4 m.

Type: Passenger vessel. MMSI: 237740500.

Date/timePositionNaut miles runAvg speedWind from/ knotsBaromVisibWave heightAir tempDewpointWater temp
2017-Sep-20 11:20N 40°47' E 024°43'0 1.0
2017-Sep-20 11:00N 40°47' E 024°42'4 7.4
2017-Sep-20 10:30N 40°50' E 024°41'1 3.0
2017-Sep-20 10:00N 40°51' E 024°42'1 1.9
2017-Sep-20 09:30N 40°51' E 024°41'4 8.9
2017-Sep-20 09:00N 40°47' E 024°42'2 3.4
2017-Sep-20 08:31N 40°48' E 024°41'3 6.2
2017-Sep-20 08:00N 40°51' E 024°42'0 0.0
2017-Sep-20 07:30N 40°51' E 024°42'3 5.2
2017-Sep-20 07:00N 40°49' E 024°42'2 4.1
2017-Sep-20 06:30N 40°47' E 024°42'4 7.5
2017-Sep-20 06:00N 40°50' E 024°41'1 2.9
2017-Sep-20 05:30N 40°51' E 024°42'1 1.9
2017-Sep-20 05:00N 40°51' E 024°41'4 8.7
2017-Sep-20 04:30N 40°47' E 024°42'0 0.0
2017-Sep-20 04:00N 40°47' E 024°42'2 3.9
2017-Sep-20 03:30N 40°49' E 024°42'3 5.6
2017-Sep-20 03:00N 40°51' E 024°42'0 0.0
2017-Sep-20 02:30N 40°51' E 024°42'0 0.0
2017-Sep-19 16:21N 40°51' E 024°42'1 2.4
2017-Sep-19 16:00N 40°51' E 024°41'4 8.4
2017-Sep-19 15:30N 40°47' E 024°42'0 0.0
2017-Sep-19 15:00N 40°47' E 024°42'0 0.1
2017-Sep-19 14:30N 40°47' E 024°42'0 0.0
2017-Sep-19 14:00N 40°47' E 024°42'2 3.3
2017-Sep-19 13:30N 40°48' E 024°42'3 6.2
2017-Sep-19 13:00N 40°51' E 024°42'0 0.0
2017-Sep-19 12:30N 40°51' E 024°42'3 5.2
2017-Sep-19 12:00N 40°49' E 024°42'2 4.2
2017-Sep-19 11:30N 40°47' E 024°42'0 0.0
2017-Sep-19 11:00N 40°47' E 024°42'0 0.0
2017-Sep-19 10:30N 40°47' E 024°42'4 7.6
2017-Sep-19 10:00N 40°50' E 024°41'1 2.8
2017-Sep-19 09:30N 40°51' E 024°42'1 2.0
2017-Sep-19 09:00N 40°51' E 024°41'4 8.6
2017-Sep-19 08:30N 40°47' E 024°42'0 0.0
2017-Sep-19 08:00N 40°47' E 024°42'0 0.0
2017-Sep-19 07:30N 40°47' E 024°42'0 0.0
2017-Sep-18 19:51N 40°47' E 024°42'0 0.0
2017-Sep-18 19:31N 40°47' E 024°42'2 3.3
2017-Sep-18 19:00N 40°48' E 024°42'3 6.0
2017-Sep-18 18:30N 40°51' E 024°42'2 3.9
2017-Sep-18 18:01N 40°50' E 024°41'3 5.7
2017-Sep-18 17:31N 40°47' E 024°42'2 3.4
2017-Sep-18 17:00N 40°48' E 024°42'3 6.0
2017-Sep-18 16:31N 40°51' E 024°42'0 0.0
2017-Sep-18 16:01N 40°51' E 024°42'0 0.0
2017-Sep-18 15:30N 40°51' E 024°42'3 5.2
2017-Sep-18 15:00N 40°49' E 024°42'2 4.2
2017-Sep-18 14:31N 40°47' E 024°42'4 7.3
2017-Sep-18 14:01N 40°50' E 024°41'1 2.8
2017-Sep-18 13:31N 40°51' E 024°42'1 1.8
2017-Sep-18 13:00N 40°51' E 024°41'4 8.8
2017-Sep-18 12:30N 40°47' E 024°42'0 0.0
2017-Sep-18 12:01N 40°47' E 024°42'2 3.3
2017-Sep-18 11:31N 40°48' E 024°42'3 6.1
2017-Sep-18 11:01N 40°51' E 024°42'0 0.0
2017-Sep-18 10:31N 40°51' E 024°42'3 5.4
2017-Sep-18 10:01N 40°49' E 024°42'2 4.0
2017-Sep-18 09:31N 40°47' E 024°42'0 0.0
2017-Sep-18 09:01N 40°47' E 024°42'0 0.0
2017-Sep-17 08:25N 40°47' E 024°42'2 3.7
2017-Sep-17 08:00N 40°48' E 024°41'3 6.6
2017-Sep-17 07:30N 40°51' E 024°42'0 0.0
2017-Sep-17 07:00N 40°51' E 024°42'3 5.1
2017-Sep-17 06:30N 40°49' E 024°42'2 4.3
2017-Sep-17 06:00N 40°47' E 024°42'1 3.0
2017-Sep-17 05:30N 40°48' E 024°41'3 6.6
2017-Sep-17 05:00N 40°51' E 024°42'0 0.0
2017-Sep-17 04:30N 40°51' E 024°42'3 5.7
2017-Sep-17 04:00N 40°49' E 024°41'2 4.0
2017-Sep-17 03:30N 40°47' E 024°42'0 0.0
2017-Sep-16 12:37N 40°47' E 024°43'0 0.0
2017-Sep-16 12:30N 40°47' E 024°43'0 0.0
2017-Sep-16 12:00N 40°47' E 024°43'0 0.0
2017-Sep-16 11:30N 40°47' E 024°43'0 0.0
2017-Sep-16 08:53N 40°47' E 024°43'0 0.0
2017-Sep-16 08:31N 40°47' E 024°43'0 0.0
2017-Sep-16 08:00N 40°47' E 024°43'0 0.0
2017-Sep-16 07:31N 40°47' E 024°43'2 4.3
2017-Sep-16 07:01N 40°49' E 024°41'3 5.4
2017-Sep-16 06:31N 40°51' E 024°42'0 0.0
2017-Sep-16 06:00N 40°51' E 024°42'3 5.4
2017-Sep-16 05:30N 40°49' E 024°41'2 4.2
2017-Sep-16 05:01N 40°47' E 024°42'2 3.2
2017-Sep-16 04:31N 40°48' E 024°42'3 6.4
2017-Sep-16 04:01N 40°51' E 024°42'0 0.1
2017-Sep-16 03:31N 40°51' E 024°42'0 0.0
2017-Sep-15 20:58N 40°51' E 024°42'1 2.1
2017-Sep-15 20:30N 40°51' E 024°41'4 8.7
2017-Sep-15 20:00N 40°47' E 024°42'0 0.0
2017-Sep-15 19:30N 40°47' E 024°42'2 3.2
2017-Sep-15 19:00N 40°48' E 024°42'3 6.3
2017-Sep-15 18:30N 40°51' E 024°42'0 0.0
2017-Sep-15 18:00N 40°51' E 024°42'0 0.0
2017-Sep-15 17:30N 40°51' E 024°42'3 5.3
2017-Sep-15 17:00N 40°49' E 024°42'2 4.2
2017-Sep-15 16:30N 40°47' E 024°42'0 0.0
2017-Sep-15 16:00N 40°47' E 024°42'0 0.0
2017-Sep-15 15:31N 40°47' E 024°42'1 2.7
2017-Sep-15 15:00N 40°48' E 024°42'3 6.8
2017-Sep-15 14:30N 40°51' E 024°42'0 0.0
2017-Sep-15 14:00N 40°51' E 024°42'3 5.4
2017-Sep-15 13:30N 40°49' E 024°42'2 4.2
2017-Sep-15 13:01N 40°47' E 024°42'0 0.0
2017-Sep-14 16:39N 40°47' E 024°42'0 0.0
2017-Sep-14 16:30N 40°47' E 024°42'4 7.2
2017-Sep-14 16:01N 40°50' E 024°41'1 2.7
2017-Sep-14 15:30N 40°51' E 024°42'1 1.8
2017-Sep-14 15:01N 40°51' E 024°41'4 8.6
2017-Sep-14 14:31N 40°47' E 024°42'0 0.1
2017-Sep-14 14:01N 40°47' E 024°42'2 3.3
2017-Sep-14 13:30N 40°48' E 024°42'3 6.0
2017-Sep-14 13:00N 40°51' E 024°42'0 0.0
2017-Sep-14 12:31N 40°51' E 024°42'3 5.3
2017-Sep-14 12:00N 40°49' E 024°42'2 4.1
2017-Sep-14 11:30N 40°47' E 024°42'2 3.4
2017-Sep-14 11:00N 40°48' E 024°42'3 6.0
2017-Sep-14 10:30N 40°51' E 024°42'0 0.0
2017-Sep-14 10:00N 40°51' E 024°42'3 5.4
2017-Sep-14 09:30N 40°49' E 024°42'2 4.1
2017-Sep-14 09:00N 40°47' E 024°42'0 0.0
2017-Sep-13 13:26N 40°47' E 024°42'2 3.8
2017-Sep-13 13:00N 40°48' E 024°41'3 6.4
2017-Sep-13 12:30N 40°51' E 024°42'0 0.0
2017-Sep-13 12:00N 40°51' E 024°42'3 5.1
2017-Sep-13 11:30N 40°49' E 024°42'2 4.3
2017-Sep-13 11:00N 40°47' E 024°42'1 2.8
2017-Sep-13 10:31N 40°48' E 024°42'3 6.6
2017-Sep-13 10:00N 40°51' E 024°42'0 0.0
2017-Sep-13 09:30N 40°51' E 024°42'3 5.4
2017-Sep-13 09:00N 40°49' E 024°42'2 4.1
2017-Sep-13 08:30N 40°47' E 024°42'1 2.9
2017-Sep-13 08:01N 40°48' E 024°41'3 6.6
2017-Sep-13 07:30N 40°51' E 024°42'0 0.0
2017-Sep-13 07:00N 40°51' E 024°42'3 5.1
2017-Sep-13 06:31N 40°49' E 024°42'2 4.3
2017-Sep-13 06:00N 40°47' E 024°42'1 3.0
2017-Sep-13 05:30N 40°48' E 024°42'3 6.5
2017-Sep-13 05:01N 40°51' E 024°42'0 0.0
2017-Sep-13 04:30N 40°51' E 024°42'3 5.4
2017-Sep-13 04:00N 40°49' E 024°42'2 4.0
2017-Sep-13 03:30N 40°47' E 024°42'0 0.0
2017-Sep-12 10:36N 40°47' E 024°43'0 0.0
2017-Sep-12 10:30N 40°47' E 024°43'2 3.6
2017-Sep-12 10:00N 40°48' E 024°41'3 6.1
2017-Sep-12 09:30N 40°51' E 024°42'0 0.0
2017-Sep-12 09:00N 40°51' E 024°42'3 5.3
2017-Sep-12 08:30N 40°49' E 024°41'2 4.2
2017-Sep-12 08:00N 40°47' E 024°42'2 3.2
2017-Sep-12 07:30N 40°48' E 024°41'3 6.4
2017-Sep-12 07:00N 40°51' E 024°42'0 0.1
2017-Sep-12 06:30N 40°51' E 024°42'3 5.4
2017-Sep-12 06:00N 40°49' E 024°41'2 4.3
2017-Sep-12 05:30N 40°47' E 024°42'1 2.9
2017-Sep-12 05:00N 40°48' E 024°42'3 6.6
2017-Sep-12 04:30N 40°51' E 024°42'0 0.0
2017-Sep-12 04:00N 40°51' E 024°42'3 5.6
2017-Sep-12 03:30N 40°49' E 024°41'2 3.9
2017-Sep-12 03:00N 40°47' E 024°42'0 0.0
2017-Sep-11 17:24N 40°47' E 024°42'1 3.4
2017-Sep-11 17:00N 40°48' E 024°42'3 6.8
2017-Sep-11 16:30N 40°51' E 024°42'0 0.0
2017-Sep-11 16:00N 40°51' E 024°42'3 5.2
2017-Sep-11 15:30N 40°49' E 024°42'2 4.2
2017-Sep-11 15:00N 40°47' E 024°42'0 0.0
2017-Sep-11 14:30N 40°47' E 024°42'1 2.6
2017-Sep-11 14:00N 40°48' E 024°42'3 6.9
2017-Sep-11 13:30N 40°51' E 024°42'0 0.0
2017-Sep-11 13:00N 40°51' E 024°42'3 5.3
2017-Sep-11 12:30N 40°49' E 024°42'2 4.2
2017-Sep-11 12:00N 40°47' E 024°42'0 0.5
2017-Sep-11 11:30N 40°47' E 024°43'  
Track history (hours):
 
Tides and Currents Weather Stations Pressure Air Temp Water Temp Dewpoint Dewpoint Depression Visibility Wind Speed Wind Dir Waves Ship Positions

Agios Rafail

Last reported at 2017-Sep-20 11:20 UTC. Time now 2017-Sep-21 03:34 UTC.
Position N 40°47' E 024°43'.

Length 80 m; draft 2.4 m.

Type: Passenger vessel. MMSI: 237740500.

Date/timePositionNaut miles runAvg speedWind from/ knotsBaromVisibWave heightAir tempDewpointWater temp
2017-Sep-20 11:20N 40°47' E 024°43'0 1.0
2017-Sep-20 11:00N 40°47' E 024°42'4 7.4
2017-Sep-20 10:30N 40°50' E 024°41'1 3.0
2017-Sep-20 10:00N 40°51' E 024°42'1 1.9
2017-Sep-20 09:30N 40°51' E 024°41'4 8.9
2017-Sep-20 09:00N 40°47' E 024°42'2 3.4
2017-Sep-20 08:31N 40°48' E 024°41'3 6.2
2017-Sep-20 08:00N 40°51' E 024°42'0 0.0
2017-Sep-20 07:30N 40°51' E 024°42'3 5.2
2017-Sep-20 07:00N 40°49' E 024°42'2 4.1
2017-Sep-20 06:30N 40°47' E 024°42'4 7.5
2017-Sep-20 06:00N 40°50' E 024°41'1 2.9
2017-Sep-20 05:30N 40°51' E 024°42'1 1.9
2017-Sep-20 05:00N 40°51' E 024°41'4 8.7
2017-Sep-20 04:30N 40°47' E 024°42'0 0.0
2017-Sep-20 04:00N 40°47' E 024°42'2 3.9
2017-Sep-20 03:30N 40°49' E 024°42'3 5.6
2017-Sep-20 03:00N 40°51' E 024°42'0 0.0
2017-Sep-20 02:30N 40°51' E 024°42'0 0.0
2017-Sep-19 16:21N 40°51' E 024°42'1 2.4
2017-Sep-19 16:00N 40°51' E 024°41'4 8.4
2017-Sep-19 15:30N 40°47' E 024°42'0 0.0
2017-Sep-19 15:00N 40°47' E 024°42'0 0.1
2017-Sep-19 14:30N 40°47' E 024°42'0 0.0
2017-Sep-19 14:00N 40°47' E 024°42'2 3.3
2017-Sep-19 13:30N 40°48' E 024°42'3 6.2
2017-Sep-19 13:00N 40°51' E 024°42'0 0.0
2017-Sep-19 12:30N 40°51' E 024°42'3 5.2
2017-Sep-19 12:00N 40°49' E 024°42'2 4.2
2017-Sep-19 11:30N 40°47' E 024°42'0 0.0
2017-Sep-19 11:00N 40°47' E 024°42'0 0.0
2017-Sep-19 10:30N 40°47' E 024°42'4 7.6
2017-Sep-19 10:00N 40°50' E 024°41'1 2.8
2017-Sep-19 09:30N 40°51' E 024°42'1 2.0
2017-Sep-19 09:00N 40°51' E 024°41'4 8.6
2017-Sep-19 08:30N 40°47' E 024°42'0 0.0
2017-Sep-19 08:00N 40°47' E 024°42'0 0.0
2017-Sep-19 07:30N 40°47' E 024°42'0 0.0
2017-Sep-18 19:51N 40°47' E 024°42'0 0.0
2017-Sep-18 19:31N 40°47' E 024°42'2 3.3
2017-Sep-18 19:00N 40°48' E 024°42'3 6.0
2017-Sep-18 18:30N 40°51' E 024°42'2 3.9
2017-Sep-18 18:01N 40°50' E 024°41'3 5.7
2017-Sep-18 17:31N 40°47' E 024°42'2 3.4
2017-Sep-18 17:00N 40°48' E 024°42'3 6.0
2017-Sep-18 16:31N 40°51' E 024°42'0 0.0
2017-Sep-18 16:01N 40°51' E 024°42'0 0.0
2017-Sep-18 15:30N 40°51' E 024°42'3 5.2
2017-Sep-18 15:00N 40°49' E 024°42'2 4.2
2017-Sep-18 14:31N 40°47' E 024°42'4 7.3
2017-Sep-18 14:01N 40°50' E 024°41'1 2.8
2017-Sep-18 13:31N 40°51' E 024°42'1 1.8
2017-Sep-18 13:00N 40°51' E 024°41'4 8.8
2017-Sep-18 12:30N 40°47' E 024°42'0 0.0
2017-Sep-18 12:01N 40°47' E 024°42'2 3.3
2017-Sep-18 11:31N 40°48' E 024°42'3 6.1
2017-Sep-18 11:01N 40°51' E 024°42'0 0.0
2017-Sep-18 10:31N 40°51' E 024°42'3 5.4
2017-Sep-18 10:01N 40°49' E 024°42'2 4.0
2017-Sep-18 09:31N 40°47' E 024°42'0 0.0
2017-Sep-18 09:01N 40°47' E 024°42'0 0.0
2017-Sep-17 08:25N 40°47' E 024°42'2 3.7
2017-Sep-17 08:00N 40°48' E 024°41'3 6.6
2017-Sep-17 07:30N 40°51' E 024°42'0 0.0
2017-Sep-17 07:00N 40°51' E 024°42'3 5.1
2017-Sep-17 06:30N 40°49' E 024°42'2 4.3
2017-Sep-17 06:00N 40°47' E 024°42'1 3.0
2017-Sep-17 05:30N 40°48' E 024°41'3 6.6
2017-Sep-17 05:00N 40°51' E 024°42'0 0.0
2017-Sep-17 04:30N 40°51' E 024°42'3 5.7
2017-Sep-17 04:00N 40°49' E 024°41'2 4.0
2017-Sep-17 03:30N 40°47' E 024°42'0 0.0
2017-Sep-16 12:37N 40°47' E 024°43'0 0.0
2017-Sep-16 12:30N 40°47' E 024°43'0 0.0
2017-Sep-16 12:00N 40°47' E 024°43'0 0.0
2017-Sep-16 11:30N 40°47' E 024°43'0 0.0
2017-Sep-16 08:53N 40°47' E 024°43'0 0.0
2017-Sep-16 08:31N 40°47' E 024°43'0 0.0
2017-Sep-16 08:00N 40°47' E 024°43'0 0.0
2017-Sep-16 07:31N 40°47' E 024°43'2 4.3
2017-Sep-16 07:01N 40°49' E 024°41'3 5.4
2017-Sep-16 06:31N 40°51' E 024°42'0 0.0
2017-Sep-16 06:00N 40°51' E 024°42'3 5.4
2017-Sep-16 05:30N 40°49' E 024°41'2 4.2
2017-Sep-16 05:01N 40°47' E 024°42'2 3.2
2017-Sep-16 04:31N 40°48' E 024°42'3 6.4
2017-Sep-16 04:01N 40°51' E 024°42'0 0.1
2017-Sep-16 03:31N 40°51' E 024°42'0 0.0
2017-Sep-15 20:58N 40°51' E 024°42'1 2.1
2017-Sep-15 20:30N 40°51' E 024°41'4 8.7
2017-Sep-15 20:00N 40°47' E 024°42'0 0.0
2017-Sep-15 19:30N 40°47' E 024°42'2 3.2
2017-Sep-15 19:00N 40°48' E 024°42'3 6.3
2017-Sep-15 18:30N 40°51' E 024°42'0 0.0
2017-Sep-15 18:00N 40°51' E 024°42'0 0.0
2017-Sep-15 17:30N 40°51' E 024°42'3 5.3
2017-Sep-15 17:00N 40°49' E 024°42'2 4.2
2017-Sep-15 16:30N 40°47' E 024°42'0 0.0
2017-Sep-15 16:00N 40°47' E 024°42'0 0.0
2017-Sep-15 15:31N 40°47' E 024°42'1 2.7
2017-Sep-15 15:00N 40°48' E 024°42'3 6.8
2017-Sep-15 14:30N 40°51' E 024°42'0 0.0
2017-Sep-15 14:00N 40°51' E 024°42'3 5.4
2017-Sep-15 13:30N 40°49' E 024°42'2 4.2
2017-Sep-15 13:01N 40°47' E 024°42'0 0.0
2017-Sep-14 16:39N 40°47' E 024°42'0 0.0
2017-Sep-14 16:30N 40°47' E 024°42'4 7.2
2017-Sep-14 16:01N 40°50' E 024°41'1 2.7
2017-Sep-14 15:30N 40°51' E 024°42'1 1.8
2017-Sep-14 15:01N 40°51' E 024°41'4 8.6
2017-Sep-14 14:31N 40°47' E 024°42'0 0.1
2017-Sep-14 14:01N 40°47' E 024°42'2 3.3
2017-Sep-14 13:30N 40°48' E 024°42'3 6.0
2017-Sep-14 13:00N 40°51' E 024°42'0 0.0
2017-Sep-14 12:31N 40°51' E 024°42'3 5.3
2017-Sep-14 12:00N 40°49' E 024°42'2 4.1
2017-Sep-14 11:30N 40°47' E 024°42'2 3.4
2017-Sep-14 11:00N 40°48' E 024°42'3 6.0
2017-Sep-14 10:30N 40°51' E 024°42'0 0.0
2017-Sep-14 10:00N 40°51' E 024°42'3 5.4
2017-Sep-14 09:30N 40°49' E 024°42'2 4.1
2017-Sep-14 09:00N 40°47' E 024°42'0 0.0
2017-Sep-13 13:26N 40°47' E 024°42'2 3.8
2017-Sep-13 13:00N 40°48' E 024°41'3 6.4
2017-Sep-13 12:30N 40°51' E 024°42'0 0.0
2017-Sep-13 12:00N 40°51' E 024°42'3 5.1
2017-Sep-13 11:30N 40°49' E 024°42'2 4.3
2017-Sep-13 11:00N 40°47' E 024°42'1 2.8
2017-Sep-13 10:31N 40°48' E 024°42'3 6.6
2017-Sep-13 10:00N 40°51' E 024°42'0 0.0
2017-Sep-13 09:30N 40°51' E 024°42'3 5.4
2017-Sep-13 09:00N 40°49' E 024°42'2 4.1
2017-Sep-13 08:30N 40°47' E 024°42'1 2.9
2017-Sep-13 08:01N 40°48' E 024°41'3 6.6
2017-Sep-13 07:30N 40°51' E 024°42'0 0.0
2017-Sep-13 07:00N 40°51' E 024°42'3 5.1
2017-Sep-13 06:31N 40°49' E 024°42'2 4.3
2017-Sep-13 06:00N 40°47' E 024°42'1 3.0
2017-Sep-13 05:30N 40°48' E 024°42'3 6.5
2017-Sep-13 05:01N 40°51' E 024°42'0 0.0
2017-Sep-13 04:30N 40°51' E 024°42'3 5.4
2017-Sep-13 04:00N 40°49' E 024°42'2 4.0
2017-Sep-13 03:30N 40°47' E 024°42'0 0.0
2017-Sep-12 10:36N 40°47' E 024°43'0 0.0
2017-Sep-12 10:30N 40°47' E 024°43'2 3.6
2017-Sep-12 10:00N 40°48' E 024°41'3 6.1
2017-Sep-12 09:30N 40°51' E 024°42'0 0.0
2017-Sep-12 09:00N 40°51' E 024°42'3 5.3
2017-Sep-12 08:30N 40°49' E 024°41'2 4.2
2017-Sep-12 08:00N 40°47' E 024°42'2 3.2
2017-Sep-12 07:30N 40°48' E 024°41'3 6.4
2017-Sep-12 07:00N 40°51' E 024°42'0 0.1
2017-Sep-12 06:30N 40°51' E 024°42'3 5.4
2017-Sep-12 06:00N 40°49' E 024°41'2 4.3
2017-Sep-12 05:30N 40°47' E 024°42'1 2.9
2017-Sep-12 05:00N 40°48' E 024°42'3 6.6
2017-Sep-12 04:30N 40°51' E 024°42'0 0.0
2017-Sep-12 04:00N 40°51' E 024°42'3 5.6
2017-Sep-12 03:30N 40°49' E 024°41'2 3.9
2017-Sep-12 03:00N 40°47' E 024°42'0 0.0
2017-Sep-11 17:24N 40°47' E 024°42'1 3.4
2017-Sep-11 17:00N 40°48' E 024°42'3 6.8
2017-Sep-11 16:30N 40°51' E 024°42'0 0.0
2017-Sep-11 16:00N 40°51' E 024°42'3 5.2
2017-Sep-11 15:30N 40°49' E 024°42'2 4.2
2017-Sep-11 15:00N 40°47' E 024°42'0 0.0
2017-Sep-11 14:30N 40°47' E 024°42'1 2.6
2017-Sep-11 14:00N 40°48' E 024°42'3 6.9
2017-Sep-11 13:30N 40°51' E 024°42'0 0.0
2017-Sep-11 13:00N 40°51' E 024°42'3 5.3
2017-Sep-11 12:30N 40°49' E 024°42'2 4.2
2017-Sep-11 12:00N 40°47' E 024°42'0 0.5
2017-Sep-11 11:30N 40°47' E 024°43'  

Dump ship's entire track history